sensor_id;sensor_type;location;lat;lon;timestamp;temperature;humidity
9486;DHT22;4781;48.776;9.200;2022-11-09T00:01:47;11.80;99.90
9486;DHT22;4781;48.776;9.200;2022-11-09T00:04:15;11.80;99.90
9486;DHT22;4781;48.776;9.200;2022-11-09T00:06:43;11.80;99.90
9486;DHT22;4781;48.776;9.200;2022-11-09T00:09:12;11.80;99.90
9486;DHT22;4781;48.776;9.200;2022-11-09T00:11:40;11.80;99.90
9486;DHT22;4781;48.776;9.200;2022-11-09T00:14:19;11.70;99.90
9486;DHT22;4781;48.776;9.200;2022-11-09T00:16:43;11.70;99.90
9486;DHT22;4781;48.776;9.200;2022-11-09T00:19:11;11.70;99.90
9486;DHT22;4781;48.776;9.200;2022-11-09T00:21:40;11.60;99.90
9486;DHT22;4781;48.776;9.200;2022-11-09T00:24:09;11.70;99.90
9486;DHT22;4781;48.776;9.200;2022-11-09T00:26:37;11.80;99.90
9486;DHT22;4781;48.776;9.200;2022-11-09T00:29:05;11.80;99.90
9486;DHT22;4781;48.776;9.200;2022-11-09T00:31:34;11.80;99.90
9486;DHT22;4781;48.776;9.200;2022-11-09T00:34:02;11.80;99.90
9486;DHT22;4781;48.776;9.200;2022-11-09T00:36:31;11.80;99.90
9486;DHT22;4781;48.776;9.200;2022-11-09T00:39:00;11.90;99.90
9486;DHT22;4781;48.776;9.200;2022-11-09T00:41:28;12.00;99.90
9486;DHT22;4781;48.776;9.200;2022-11-09T00:43:57;12.10;99.90
9486;DHT22;4781;48.776;9.200;2022-11-09T00:46:25;12.10;99.90
9486;DHT22;4781;48.776;9.200;2022-11-09T00:48:54;12.10;99.90
9486;DHT22;4781;48.776;9.200;2022-11-09T00:51:23;12.20;99.90
9486;DHT22;4781;48.776;9.200;2022-11-09T00:53:52;12.20;99.90
9486;DHT22;4781;48.776;9.200;2022-11-09T00:56:23;12.30;99.90
9486;DHT22;4781;48.776;9.200;2022-11-09T00:58:55;12.30;99.90
9486;DHT22;4781;48.776;9.200;2022-11-09T01:01:23;12.40;99.90
9486;DHT22;4781;48.776;9.200;2022-11-09T01:03:52;12.50;99.90
9486;DHT22;4781;48.776;9.200;2022-11-09T01:06:23;12.40;99.90
9486;DHT22;4781;48.776;9.200;2022-11-09T01:08:52;12.50;99.90
9486;DHT22;4781;48.776;9.200;2022-11-09T01:11:21;12.50;99.90
9486;DHT22;4781;48.776;9.200;2022-11-09T01:13:50;12.60;99.90
9486;DHT22;4781;48.776;9.200;2022-11-09T01:16:21;12.60;99.90
9486;DHT22;4781;48.776;9.200;2022-11-09T01:18:54;12.60;99.90
9486;DHT22;4781;48.776;9.200;2022-11-09T01:21:25;12.80;99.90
9486;DHT22;4781;48.776;9.200;2022-11-09T01:23:54;12.90;99.90
9486;DHT22;4781;48.776;9.200;2022-11-09T01:26:23;12.90;99.90
9486;DHT22;4781;48.776;9.200;2022-11-09T01:28:52;12.90;99.90
9486;DHT22;4781;48.776;9.200;2022-11-09T01:31:22;12.90;99.90
9486;DHT22;4781;48.776;9.200;2022-11-09T01:33:50;12.90;99.90
9486;DHT22;4781;48.776;9.200;2022-11-09T01:36:21;12.90;99.90
9486;DHT22;4781;48.776;9.200;2022-11-09T01:38:50;12.90;99.90
9486;DHT22;4781;48.776;9.200;2022-11-09T01:41:26;12.90;99.90
9486;DHT22;4781;48.776;9.200;2022-11-09T01:46:46;12.90;99.90
9486;DHT22;4781;48.776;9.200;2022-11-09T01:52:18;12.90;99.90
9486;DHT22;4781;48.776;9.200;2022-11-09T01:54:56;12.90;99.90
9486;DHT22;4781;48.776;9.200;2022-11-09T01:57:29;12.90;99.90
9486;DHT22;4781;48.776;9.200;2022-11-09T02:00:06;12.90;99.90
9486;DHT22;4781;48.776;9.200;2022-11-09T02:02:55;12.90;99.90
9486;DHT22;4781;48.776;9.200;2022-11-09T02:05:24;13.00;99.90
9486;DHT22;4781;48.776;9.200;2022-11-09T02:07:55;12.90;99.90
9486;DHT22;4781;48.776;9.200;2022-11-09T02:10:33;12.90;99.90
9486;DHT22;4781;48.776;9.200;2022-11-09T02:13:03;12.80;99.90
9486;DHT22;4781;48.776;9.200;2022-11-09T02:15:33;12.90;99.90
9486;DHT22;4781;48.776;9.200;2022-11-09T02:18:03;12.90;99.90
9486;DHT22;4781;48.776;9.200;2022-11-09T02:20:49;13.00;99.90
9486;DHT22;4781;48.776;9.200;2022-11-09T02:23:18;13.10;99.90
9486;DHT22;4781;48.776;9.200;2022-11-09T02:26:02;13.20;99.90
9486;DHT22;4781;48.776;9.200;2022-11-09T02:28:32;13.30;99.90
9486;DHT22;4781;48.776;9.200;2022-11-09T02:31:04;13.30;99.90
9486;DHT22;4781;48.776;9.200;2022-11-09T02:33:55;13.40;99.90
9486;DHT22;4781;48.776;9.200;2022-11-09T02:36:28;13.40;99.90
9486;DHT22;4781;48.776;9.200;2022-11-09T02:38:57;13.40;99.90
9486;DHT22;4781;48.776;9.200;2022-11-09T02:41:26;13.30;99.90
9486;DHT22;4781;48.776;9.200;2022-11-09T02:43:57;13.20;99.90
9486;DHT22;4781;48.776;9.200;2022-11-09T02:46:33;13.10;99.90
9486;DHT22;4781;48.776;9.200;2022-11-09T02:49:02;13.10;99.90
9486;DHT22;4781;48.776;9.200;2022-11-09T02:51:30;13.10;99.90
9486;DHT22;4781;48.776;9.200;2022-11-09T02:53:59;13.10;99.90
9486;DHT22;4781;48.776;9.200;2022-11-09T02:56:27;13.10;99.90
9486;DHT22;4781;48.776;9.200;2022-11-09T02:58:56;13.10;99.90
9486;DHT22;4781;48.776;9.200;2022-11-09T03:01:24;13.10;99.90
9486;DHT22;4781;48.776;9.200;2022-11-09T03:03:52;13.10;99.90
9486;DHT22;4781;48.776;9.200;2022-11-09T03:06:21;13.00;99.90
9486;DHT22;4781;48.776;9.200;2022-11-09T03:08:54;12.90;99.90
9486;DHT22;4781;48.776;9.200;2022-11-09T03:11:22;12.90;99.90
9486;DHT22;4781;48.776;9.200;2022-11-09T03:13:51;13.00;99.90
9486;DHT22;4781;48.776;9.200;2022-11-09T03:16:19;12.90;99.90
9486;DHT22;4781;48.776;9.200;2022-11-09T03:18:47;12.90;99.90
9486;DHT22;4781;48.776;9.200;2022-11-09T03:21:16;12.90;99.90
9486;DHT22;4781;48.776;9.200;2022-11-09T03:23:45;12.90;99.90
9486;DHT22;4781;48.776;9.200;2022-11-09T03:26:14;12.80;99.90
9486;DHT22;4781;48.776;9.200;2022-11-09T03:28:42;12.70;99.90
9486;DHT22;4781;48.776;9.200;2022-11-09T03:31:11;12.60;99.90
9486;DHT22;4781;48.776;9.200;2022-11-09T03:33:40;12.60;99.90
9486;DHT22;4781;48.776;9.200;2022-11-09T03:36:09;12.60;99.90
9486;DHT22;4781;48.776;9.200;2022-11-09T03:38:37;12.50;99.90
9486;DHT22;4781;48.776;9.200;2022-11-09T03:41:05;12.40;99.90
9486;DHT22;4781;48.776;9.200;2022-11-09T03:43:34;12.30;99.90
9486;DHT22;4781;48.776;9.200;2022-11-09T03:46:02;12.30;99.90
9486;DHT22;4781;48.776;9.200;2022-11-09T03:48:31;12.20;99.90
9486;DHT22;4781;48.776;9.200;2022-11-09T03:50:59;12.20;99.90
9486;DHT22;4781;48.776;9.200;2022-11-09T03:53:27;12.10;99.90
9486;DHT22;4781;48.776;9.200;2022-11-09T03:55:57;12.10;99.90
9486;DHT22;4781;48.776;9.200;2022-11-09T03:58:25;12.10;99.90
9486;DHT22;4781;48.776;9.200;2022-11-09T04:00:54;12.10;99.90
9486;DHT22;4781;48.776;9.200;2022-11-09T04:03:22;12.10;99.90
9486;DHT22;4781;48.776;9.200;2022-11-09T04:05:50;12.10;99.90
9486;DHT22;4781;48.776;9.200;2022-11-09T04:08:19;12.20;99.90
9486;DHT22;4781;48.776;9.200;2022-11-09T04:10:47;12.10;99.90
9486;DHT22;4781;48.776;9.200;2022-11-09T04:13:16;12.10;99.90
9486;DHT22;4781;48.776;9.200;2022-11-09T04:15:44;12.10;99.90
9486;DHT22;4781;48.776;9.200;2022-11-09T04:18:14;12.00;99.90
9486;DHT22;4781;48.776;9.200;2022-11-09T04:20:43;12.00;99.90
9486;DHT22;4781;48.776;9.200;2022-11-09T04:23:12;12.00;99.90
9486;DHT22;4781;48.776;9.200;2022-11-09T04:25:41;12.00;99.90
9486;DHT22;4781;48.776;9.200;2022-11-09T04:28:11;11.90;99.90
9486;DHT22;4781;48.776;9.200;2022-11-09T04:30:39;11.80;99.90
9486;DHT22;4781;48.776;9.200;2022-11-09T04:33:08;11.70;99.90
9486;DHT22;4781;48.776;9.200;2022-11-09T04:35:37;11.60;99.90
9486;DHT22;4781;48.776;9.200;2022-11-09T04:38:06;11.80;99.90
9486;DHT22;4781;48.776;9.200;2022-11-09T04:40:37;11.80;99.90
9486;DHT22;4781;48.776;9.200;2022-11-09T04:43:08;11.70;99.90
9486;DHT22;4781;48.776;9.200;2022-11-09T04:45:37;11.70;99.90
9486;DHT22;4781;48.776;9.200;2022-11-09T04:48:08;11.70;99.90
9486;DHT22;4781;48.776;9.200;2022-11-09T04:50:37;11.80;99.90
9486;DHT22;4781;48.776;9.200;2022-11-09T04:53:08;11.80;99.90
9486;DHT22;4781;48.776;9.200;2022-11-09T04:55:39;11.80;99.90
9486;DHT22;4781;48.776;9.200;2022-11-09T04:58:09;11.80;99.90
9486;DHT22;4781;48.776;9.200;2022-11-09T05:00:38;11.70;99.90
9486;DHT22;4781;48.776;9.200;2022-11-09T05:03:06;11.80;99.90
9486;DHT22;4781;48.776;9.200;2022-11-09T05:05:36;11.70;99.90
9486;DHT22;4781;48.776;9.200;2022-11-09T05:08:05;11.60;99.90
9486;DHT22;4781;48.776;9.200;2022-11-09T05:10:34;11.50;99.90
9486;DHT22;4781;48.776;9.200;2022-11-09T05:13:06;11.50;99.90
9486;DHT22;4781;48.776;9.200;2022-11-09T05:15:36;11.50;99.90
9486;DHT22;4781;48.776;9.200;2022-11-09T05:18:05;11.50;99.90
9486;DHT22;4781;48.776;9.200;2022-11-09T05:20:35;11.50;99.90
9486;DHT22;4781;48.776;9.200;2022-11-09T05:23:04;11.50;99.90
9486;DHT22;4781;48.776;9.200;2022-11-09T05:25:50;11.50;99.90
9486;DHT22;4781;48.776;9.200;2022-11-09T05:28:18;11.50;99.90
9486;DHT22;4781;48.776;9.200;2022-11-09T05:30:47;11.50;99.90
9486;DHT22;4781;48.776;9.200;2022-11-09T05:33:15;11.40;99.90
9486;DHT22;4781;48.776;9.200;2022-11-09T05:35:43;11.50;99.90
9486;DHT22;4781;48.776;9.200;2022-11-09T05:38:12;11.40;99.90
9486;DHT22;4781;48.776;9.200;2022-11-09T05:40:40;11.40;99.90
9486;DHT22;4781;48.776;9.200;2022-11-09T05:43:09;11.30;99.90
9486;DHT22;4781;48.776;9.200;2022-11-09T05:45:37;11.30;99.90
9486;DHT22;4781;48.776;9.200;2022-11-09T05:48:06;11.20;99.90
9486;DHT22;4781;48.776;9.200;2022-11-09T05:50:34;11.20;99.90
9486;DHT22;4781;48.776;9.200;2022-11-09T05:53:03;11.20;99.90
9486;DHT22;4781;48.776;9.200;2022-11-09T05:55:32;11.00;99.90
9486;DHT22;4781;48.776;9.200;2022-11-09T05:58:00;11.00;99.90
9486;DHT22;4781;48.776;9.200;2022-11-09T06:00:29;11.00;99.90
9486;DHT22;4781;48.776;9.200;2022-11-09T06:03:06;11.00;99.90
9486;DHT22;4781;48.776;9.200;2022-11-09T06:05:36;11.00;99.90
9486;DHT22;4781;48.776;9.200;2022-11-09T06:08:11;11.10;99.90
9486;DHT22;4781;48.776;9.200;2022-11-09T06:10:41;11.00;99.90
9486;DHT22;4781;48.776;9.200;2022-11-09T06:13:10;11.00;99.90
9486;DHT22;4781;48.776;9.200;2022-11-09T06:15:38;11.00;99.90
9486;DHT22;4781;48.776;9.200;2022-11-09T06:18:06;11.10;99.90
9486;DHT22;4781;48.776;9.200;2022-11-09T06:20:35;11.10;99.90
9486;DHT22;4781;48.776;9.200;2022-11-09T06:23:03;11.10;99.90
9486;DHT22;4781;48.776;9.200;2022-11-09T06:25:32;11.00;99.90
9486;DHT22;4781;48.776;9.200;2022-11-09T06:28:01;11.00;99.90
9486;DHT22;4781;48.776;9.200;2022-11-09T06:30:29;11.00;99.90
9486;DHT22;4781;48.776;9.200;2022-11-09T06:33:02;11.00;99.90
9486;DHT22;4781;48.776;9.200;2022-11-09T06:35:30;11.00;99.90
9486;DHT22;4781;48.776;9.200;2022-11-09T06:37:59;11.00;99.90
9486;DHT22;4781;48.776;9.200;2022-11-09T06:40:28;10.90;99.90
9486;DHT22;4781;48.776;9.200;2022-11-09T06:42:58;10.90;99.90
9486;DHT22;4781;48.776;9.200;2022-11-09T06:45:28;11.00;99.90
9486;DHT22;4781;48.776;9.200;2022-11-09T06:47:58;11.00;99.90
9486;DHT22;4781;48.776;9.200;2022-11-09T06:50:30;11.00;99.90
9486;DHT22;4781;48.776;9.200;2022-11-09T06:53:04;11.00;99.90
9486;DHT22;4781;48.776;9.200;2022-11-09T06:55:34;11.00;99.90
9486;DHT22;4781;48.776;9.200;2022-11-09T06:58:07;11.00;99.90
9486;DHT22;4781;48.776;9.200;2022-11-09T07:00:42;11.00;99.90
9486;DHT22;4781;48.776;9.200;2022-11-09T07:03:19;11.00;99.90
9486;DHT22;4781;48.776;9.200;2022-11-09T07:05:44;11.00;99.90
9486;DHT22;4781;48.776;9.200;2022-11-09T07:08:14;11.00;99.90
9486;DHT22;4781;48.776;9.200;2022-11-09T07:10:43;11.00;99.90
9486;DHT22;4781;48.776;9.200;2022-11-09T07:13:11;11.10;99.90
9486;DHT22;4781;48.776;9.200;2022-11-09T07:15:40;11.00;99.90
9486;DHT22;4781;48.776;9.200;2022-11-09T07:18:10;11.00;99.90
9486;DHT22;4781;48.776;9.200;2022-11-09T07:20:38;11.10;99.90
9486;DHT22;4781;48.776;9.200;2022-11-09T07:23:07;11.00;99.90
9486;DHT22;4781;48.776;9.200;2022-11-09T07:25:35;11.00;99.90
9486;DHT22;4781;48.776;9.200;2022-11-09T07:28:05;11.00;99.90
9486;DHT22;4781;48.776;9.200;2022-11-09T07:30:35;11.00;99.90
9486;DHT22;4781;48.776;9.200;2022-11-09T07:33:15;11.00;99.90
9486;DHT22;4781;48.776;9.200;2022-11-09T07:35:48;11.00;99.90
9486;DHT22;4781;48.776;9.200;2022-11-09T07:38:16;11.10;99.90
9486;DHT22;4781;48.776;9.200;2022-11-09T07:40:45;11.10;99.90
9486;DHT22;4781;48.776;9.200;2022-11-09T07:43:13;11.10;99.90
9486;DHT22;4781;48.776;9.200;2022-11-09T07:45:43;11.10;99.90
9486;DHT22;4781;48.776;9.200;2022-11-09T07:48:13;11.10;99.90
9486;DHT22;4781;48.776;9.200;2022-11-09T07:50:41;11.20;99.90
9486;DHT22;4781;48.776;9.200;2022-11-09T07:53:12;11.20;99.90
9486;DHT22;4781;48.776;9.200;2022-11-09T07:55:41;11.20;99.90
9486;DHT22;4781;48.776;9.200;2022-11-09T07:58:12;11.20;99.90
9486;DHT22;4781;48.776;9.200;2022-11-09T08:00:42;11.30;99.90
9486;DHT22;4781;48.776;9.200;2022-11-09T08:03:10;11.30;99.90
9486;DHT22;4781;48.776;9.200;2022-11-09T08:05:39;11.40;99.90
9486;DHT22;4781;48.776;9.200;2022-11-09T08:08:10;11.50;99.90
9486;DHT22;4781;48.776;9.200;2022-11-09T08:10:39;11.50;99.90
9486;DHT22;4781;48.776;9.200;2022-11-09T08:13:10;11.60;99.90
9486;DHT22;4781;48.776;9.200;2022-11-09T08:15:40;11.60;99.90
9486;DHT22;4781;48.776;9.200;2022-11-09T08:18:14;11.60;99.90
9486;DHT22;4781;48.776;9.200;2022-11-09T08:20:44;11.70;99.90
9486;DHT22;4781;48.776;9.200;2022-11-09T08:23:15;11.70;99.90
9486;DHT22;4781;48.776;9.200;2022-11-09T08:25:44;11.70;99.90
9486;DHT22;4781;48.776;9.200;2022-11-09T08:28:13;11.70;99.90
9486;DHT22;4781;48.776;9.200;2022-11-09T08:30:43;11.80;99.90
9486;DHT22;4781;48.776;9.200;2022-11-09T08:33:12;11.80;99.90
9486;DHT22;4781;48.776;9.200;2022-11-09T08:35:40;11.80;99.90
9486;DHT22;4781;48.776;9.200;2022-11-09T08:38:08;11.90;99.90
9486;DHT22;4781;48.776;9.200;2022-11-09T08:40:37;11.90;99.90
9486;DHT22;4781;48.776;9.200;2022-11-09T08:43:07;11.90;99.90
9486;DHT22;4781;48.776;9.200;2022-11-09T08:45:38;11.90;99.90
9486;DHT22;4781;48.776;9.200;2022-11-09T08:48:09;11.90;99.90
9486;DHT22;4781;48.776;9.200;2022-11-09T08:50:37;12.00;99.90
9486;DHT22;4781;48.776;9.200;2022-11-09T08:53:06;12.00;99.90
9486;DHT22;4781;48.776;9.200;2022-11-09T08:55:34;12.00;99.90
9486;DHT22;4781;48.776;9.200;2022-11-09T08:58:03;12.00;99.90
9486;DHT22;4781;48.776;9.200;2022-11-09T09:00:31;12.00;99.90
9486;DHT22;4781;48.776;9.200;2022-11-09T09:03:02;12.00;99.90
9486;DHT22;4781;48.776;9.200;2022-11-09T09:05:34;12.00;99.90
9486;DHT22;4781;48.776;9.200;2022-11-09T09:08:04;12.10;99.90
9486;DHT22;4781;48.776;9.200;2022-11-09T09:10:34;12.10;99.90
9486;DHT22;4781;48.776;9.200;2022-11-09T09:13:03;12.10;99.90
9486;DHT22;4781;48.776;9.200;2022-11-09T09:15:32;12.10;99.90
9486;DHT22;4781;48.776;9.200;2022-11-09T09:18:02;12.10;99.90
9486;DHT22;4781;48.776;9.200;2022-11-09T09:20:31;12.10;99.90
9486;DHT22;4781;48.776;9.200;2022-11-09T09:23:00;12.10;99.90
9486;DHT22;4781;48.776;9.200;2022-11-09T09:25:28;12.10;99.90
9486;DHT22;4781;48.776;9.200;2022-11-09T09:27:57;12.10;99.90
9486;DHT22;4781;48.776;9.200;2022-11-09T09:30:25;12.10;99.90
9486;DHT22;4781;48.776;9.200;2022-11-09T09:32:58;12.20;99.90
9486;DHT22;4781;48.776;9.200;2022-11-09T09:35:27;12.20;99.90
9486;DHT22;4781;48.776;9.200;2022-11-09T09:37:56;12.30;99.90
9486;DHT22;4781;48.776;9.200;2022-11-09T09:40:30;12.30;99.90
9486;DHT22;4781;48.776;9.200;2022-11-09T09:43:00;12.30;99.90
9486;DHT22;4781;48.776;9.200;2022-11-09T09:45:33;12.30;99.90
9486;DHT22;4781;48.776;9.200;2022-11-09T09:48:17;12.40;99.90
9486;DHT22;4781;48.776;9.200;2022-11-09T09:51:18;12.40;99.90
9486;DHT22;4781;48.776;9.200;2022-11-09T09:53:55;12.50;99.90
9486;DHT22;4781;48.776;9.200;2022-11-09T09:56:44;12.50;99.90
9486;DHT22;4781;48.776;9.200;2022-11-09T10:01:50;12.60;99.90
9486;DHT22;4781;48.776;9.200;2022-11-09T10:04:20;12.70;99.90
9486;DHT22;4781;48.776;9.200;2022-11-09T10:07:19;12.70;99.90
9486;DHT22;4781;48.776;9.200;2022-11-09T10:10:16;12.80;99.90
9486;DHT22;4781;48.776;9.200;2022-11-09T10:18:44;12.90;99.90
9486;DHT22;4781;48.776;9.200;2022-11-09T10:21:51;13.00;99.90
9486;DHT22;4781;48.776;9.200;2022-11-09T10:27:23;13.10;99.90
9486;DHT22;4781;48.776;9.200;2022-11-09T10:29:56;13.20;99.90
9486;DHT22;4781;48.776;9.200;2022-11-09T10:32:29;13.20;99.90
9486;DHT22;4781;48.776;9.200;2022-11-09T10:35:09;13.20;99.90
9486;DHT22;4781;48.776;9.200;2022-11-09T10:37:48;13.30;99.90
9486;DHT22;4781;48.776;9.200;2022-11-09T10:40:32;13.40;99.90
9486;DHT22;4781;48.776;9.200;2022-11-09T10:43:11;13.50;99.90
9486;DHT22;4781;48.776;9.200;2022-11-09T10:45:42;13.60;99.90
9486;DHT22;4781;48.776;9.200;2022-11-09T10:48:12;13.60;99.90
9486;DHT22;4781;48.776;9.200;2022-11-09T10:50:51;13.60;99.90
9486;DHT22;4781;48.776;9.200;2022-11-09T10:53:24;13.70;99.90
9486;DHT22;4781;48.776;9.200;2022-11-09T10:56:12;13.70;99.90
9486;DHT22;4781;48.776;9.200;2022-11-09T10:58:50;13.70;99.90
9486;DHT22;4781;48.776;9.200;2022-11-09T11:04:20;13.70;99.90
9486;DHT22;4781;48.776;9.200;2022-11-09T11:06:50;13.80;99.90
9486;DHT22;4781;48.776;9.200;2022-11-09T11:09:21;13.80;99.90
9486;DHT22;4781;48.776;9.200;2022-11-09T11:14:43;13.90;99.90
9486;DHT22;4781;48.776;9.200;2022-11-09T11:17:26;14.00;99.90
9486;DHT22;4781;48.776;9.200;2022-11-09T11:20:01;14.10;99.90
9486;DHT22;4781;48.776;9.200;2022-11-09T11:22:46;14.20;99.90
9486;DHT22;4781;48.776;9.200;2022-11-09T11:25:20;14.20;99.90
9486;DHT22;4781;48.776;9.200;2022-11-09T11:27:59;14.30;99.90
9486;DHT22;4781;48.776;9.200;2022-11-09T11:30:38;14.30;99.90
9486;DHT22;4781;48.776;9.200;2022-11-09T11:33:16;14.40;99.90
9486;DHT22;4781;48.776;9.200;2022-11-09T11:35:52;14.40;99.90
9486;DHT22;4781;48.776;9.200;2022-11-09T11:38:56;14.40;99.90
9486;DHT22;4781;48.776;9.200;2022-11-09T11:41:50;14.50;99.90
9486;DHT22;4781;48.776;9.200;2022-11-09T11:47:43;14.50;99.90
9486;DHT22;4781;48.776;9.200;2022-11-09T11:50:24;14.50;99.90
9486;DHT22;4781;48.776;9.200;2022-11-09T11:59:20;14.60;99.90
9486;DHT22;4781;48.776;9.200;2022-11-09T12:02:11;14.60;99.90
9486;DHT22;4781;48.776;9.200;2022-11-09T12:04:51;14.50;99.90
9486;DHT22;4781;48.776;9.200;2022-11-09T12:07:24;14.60;99.90
9486;DHT22;4781;48.776;9.200;2022-11-09T12:10:13;14.60;99.90
9486;DHT22;4781;48.776;9.200;2022-11-09T12:18:09;14.50;99.90
9486;DHT22;4781;48.776;9.200;2022-11-09T12:23:58;14.60;99.90
9486;DHT22;4781;48.776;9.200;2022-11-09T12:26:42;14.60;99.90
9486;DHT22;4781;48.776;9.200;2022-11-09T12:29:20;14.60;99.90
9486;DHT22;4781;48.776;9.200;2022-11-09T12:32:11;14.60;99.90
9486;DHT22;4781;48.776;9.200;2022-11-09T12:38:46;14.60;99.90
9486;DHT22;4781;48.776;9.200;2022-11-09T12:40:37;14.60;99.90
9486;DHT22;4781;48.776;9.200;2022-11-09T12:43:29;14.60;99.90
9486;DHT22;4781;48.776;9.200;2022-11-09T12:46:02;14.60;99.90
9486;DHT22;4781;48.776;9.200;2022-11-09T12:48:33;14.60;99.90
9486;DHT22;4781;48.776;9.200;2022-11-09T12:51:03;14.70;99.90
9486;DHT22;4781;48.776;9.200;2022-11-09T12:53:35;14.70;99.90
9486;DHT22;4781;48.776;9.200;2022-11-09T12:56:23;14.70;99.90
9486;DHT22;4781;48.776;9.200;2022-11-09T13:01:57;14.80;99.90
9486;DHT22;4781;48.776;9.200;2022-11-09T13:04:26;14.80;99.90
9486;DHT22;4781;48.776;9.200;2022-11-09T13:09:40;14.90;99.90
9486;DHT22;4781;48.776;9.200;2022-11-09T13:12:31;14.90;99.90
9486;DHT22;4781;48.776;9.200;2022-11-09T13:15:20;14.90;99.90
9486;DHT22;4781;48.776;9.200;2022-11-09T13:17:56;14.90;99.90
9486;DHT22;4781;48.776;9.200;2022-11-09T13:20:38;14.90;99.90
9486;DHT22;4781;48.776;9.200;2022-11-09T13:23:28;14.90;99.90
9486;DHT22;4781;48.776;9.200;2022-11-09T13:26:03;14.90;99.90
9486;DHT22;4781;48.776;9.200;2022-11-09T13:31:09;14.90;99.90
9486;DHT22;4781;48.776;9.200;2022-11-09T13:33:38;14.90;99.90
9486;DHT22;4781;48.776;9.200;2022-11-09T13:38:40;14.90;99.90
9486;DHT22;4781;48.776;9.200;2022-11-09T13:44:13;14.90;99.90
9486;DHT22;4781;48.776;9.200;2022-11-09T13:46:45;14.90;99.90
9486;DHT22;4781;48.776;9.200;2022-11-09T13:49:43;14.90;99.90
9486;DHT22;4781;48.776;9.200;2022-11-09T13:55:36;14.90;99.90
9486;DHT22;4781;48.776;9.200;2022-11-09T13:58:24;14.90;99.90
9486;DHT22;4781;48.776;9.200;2022-11-09T14:00:51;14.90;99.90
9486;DHT22;4781;48.776;9.200;2022-11-09T14:03:23;14.90;99.90
9486;DHT22;4781;48.776;9.200;2022-11-09T14:05:58;14.90;99.90
9486;DHT22;4781;48.776;9.200;2022-11-09T14:08:30;14.80;99.90
9486;DHT22;4781;48.776;9.200;2022-11-09T14:14:52;14.80;99.90
9486;DHT22;4781;48.776;9.200;2022-11-09T14:17:28;14.80;99.90
9486;DHT22;4781;48.776;9.200;2022-11-09T14:20:24;14.70;99.90
9486;DHT22;4781;48.776;9.200;2022-11-09T14:23:18;14.80;99.90
9486;DHT22;4781;48.776;9.200;2022-11-09T14:25:48;14.70;99.90
9486;DHT22;4781;48.776;9.200;2022-11-09T14:28:22;14.70;99.90
9486;DHT22;4781;48.776;9.200;2022-11-09T14:30:53;14.70;99.90
9486;DHT22;4781;48.776;9.200;2022-11-09T14:33:32;14.70;99.90
9486;DHT22;4781;48.776;9.200;2022-11-09T14:36:03;14.70;99.90
9486;DHT22;4781;48.776;9.200;2022-11-09T14:38:42;14.70;99.90
9486;DHT22;4781;48.776;9.200;2022-11-09T14:41:19;14.70;99.90
9486;DHT22;4781;48.776;9.200;2022-11-09T14:43:50;14.70;99.90
9486;DHT22;4781;48.776;9.200;2022-11-09T14:46:22;14.70;99.90
9486;DHT22;4781;48.776;9.200;2022-11-09T14:48:59;14.70;99.90
9486;DHT22;4781;48.776;9.200;2022-11-09T14:51:32;14.60;99.90
9486;DHT22;4781;48.776;9.200;2022-11-09T14:54:10;14.60;99.90
9486;DHT22;4781;48.776;9.200;2022-11-09T14:56:40;14.60;99.90
9486;DHT22;4781;48.776;9.200;2022-11-09T14:59:21;14.60;99.90
9486;DHT22;4781;48.776;9.200;2022-11-09T15:02:09;14.50;99.90
9486;DHT22;4781;48.776;9.200;2022-11-09T15:05:01;14.60;99.90
9486;DHT22;4781;48.776;9.200;2022-11-09T15:07:33;14.50;99.90
9486;DHT22;4781;48.776;9.200;2022-11-09T15:10:05;14.50;99.90
9486;DHT22;4781;48.776;9.200;2022-11-09T15:12:35;14.40;99.90
9486;DHT22;4781;48.776;9.200;2022-11-09T15:15:05;14.40;99.90
9486;DHT22;4781;48.776;9.200;2022-11-09T15:17:36;14.30;99.90
9486;DHT22;4781;48.776;9.200;2022-11-09T15:22:54;14.30;99.90
9486;DHT22;4781;48.776;9.200;2022-11-09T15:28:18;14.20;99.90
9486;DHT22;4781;48.776;9.200;2022-11-09T15:33:38;14.20;99.90
9486;DHT22;4781;48.776;9.200;2022-11-09T15:39:18;14.10;99.90
9486;DHT22;4781;48.776;9.200;2022-11-09T15:41:47;14.00;99.90
9486;DHT22;4781;48.776;9.200;2022-11-09T15:44:16;14.00;99.90
9486;DHT22;4781;48.776;9.200;2022-11-09T15:46:49;13.90;99.90
9486;DHT22;4781;48.776;9.200;2022-11-09T15:49:20;14.00;99.90
9486;DHT22;4781;48.776;9.200;2022-11-09T15:51:50;14.00;99.90
9486;DHT22;4781;48.776;9.200;2022-11-09T15:54:21;13.90;99.90
9486;DHT22;4781;48.776;9.200;2022-11-09T15:56:50;13.90;99.90
9486;DHT22;4781;48.776;9.200;2022-11-09T15:59:22;13.90;99.90
9486;DHT22;4781;48.776;9.200;2022-11-09T16:01:52;13.90;99.90
9486;DHT22;4781;48.776;9.200;2022-11-09T16:04:20;13.80;99.90
9486;DHT22;4781;48.776;9.200;2022-11-09T16:06:48;13.90;99.90
9486;DHT22;4781;48.776;9.200;2022-11-09T16:09:17;13.80;99.90
9486;DHT22;4781;48.776;9.200;2022-11-09T16:11:47;13.80;99.90
9486;DHT22;4781;48.776;9.200;2022-11-09T16:14:16;13.80;99.90
9486;DHT22;4781;48.776;9.200;2022-11-09T16:16:46;13.80;99.90
9486;DHT22;4781;48.776;9.200;2022-11-09T16:19:15;13.80;99.90
9486;DHT22;4781;48.776;9.200;2022-11-09T16:21:43;13.80;99.90
9486;DHT22;4781;48.776;9.200;2022-11-09T16:24:12;13.80;99.90
9486;DHT22;4781;48.776;9.200;2022-11-09T16:26:42;13.80;99.90
9486;DHT22;4781;48.776;9.200;2022-11-09T16:29:11;13.70;99.90
9486;DHT22;4781;48.776;9.200;2022-11-09T16:31:40;13.80;99.90
9486;DHT22;4781;48.776;9.200;2022-11-09T16:34:08;13.70;99.90
9486;DHT22;4781;48.776;9.200;2022-11-09T16:36:36;13.70;99.90
9486;DHT22;4781;48.776;9.200;2022-11-09T16:39:07;13.70;99.90
9486;DHT22;4781;48.776;9.200;2022-11-09T16:41:39;13.70;99.90
9486;DHT22;4781;48.776;9.200;2022-11-09T16:44:08;13.70;99.90
9486;DHT22;4781;48.776;9.200;2022-11-09T16:46:39;13.70;99.90
9486;DHT22;4781;48.776;9.200;2022-11-09T16:49:09;13.60;99.90
9486;DHT22;4781;48.776;9.200;2022-11-09T16:51:38;13.60;99.90
9486;DHT22;4781;48.776;9.200;2022-11-09T16:54:06;13.60;99.90
9486;DHT22;4781;48.776;9.200;2022-11-09T16:56:35;13.60;99.90
9486;DHT22;4781;48.776;9.200;2022-11-09T16:59:03;13.60;99.90
9486;DHT22;4781;48.776;9.200;2022-11-09T17:01:31;13.50;99.90
9486;DHT22;4781;48.776;9.200;2022-11-09T17:04:00;13.50;99.90
9486;DHT22;4781;48.776;9.200;2022-11-09T17:06:30;13.50;99.90
9486;DHT22;4781;48.776;9.200;2022-11-09T17:09:01;13.50;99.90
9486;DHT22;4781;48.776;9.200;2022-11-09T17:11:30;13.50;99.90
9486;DHT22;4781;48.776;9.200;2022-11-09T17:13:59;13.40;99.90
9486;DHT22;4781;48.776;9.200;2022-11-09T17:16:27;13.40;99.90
9486;DHT22;4781;48.776;9.200;2022-11-09T17:18:56;13.40;99.90
9486;DHT22;4781;48.776;9.200;2022-11-09T17:21:26;13.40;99.90
9486;DHT22;4781;48.776;9.200;2022-11-09T17:23:56;13.40;99.90
9486;DHT22;4781;48.776;9.200;2022-11-09T17:26:25;13.30;99.90
9486;DHT22;4781;48.776;9.200;2022-11-09T17:28:53;13.30;99.90
9486;DHT22;4781;48.776;9.200;2022-11-09T17:31:23;13.30;99.90
9486;DHT22;4781;48.776;9.200;2022-11-09T17:33:52;13.30;99.90
9486;DHT22;4781;48.776;9.200;2022-11-09T17:36:22;13.20;99.90
9486;DHT22;4781;48.776;9.200;2022-11-09T17:38:51;13.20;99.90
9486;DHT22;4781;48.776;9.200;2022-11-09T17:41:20;13.20;99.90
9486;DHT22;4781;48.776;9.200;2022-11-09T17:43:48;13.20;99.90
9486;DHT22;4781;48.776;9.200;2022-11-09T17:46:19;13.20;99.90
9486;DHT22;4781;48.776;9.200;2022-11-09T17:48:48;13.20;99.90
9486;DHT22;4781;48.776;9.200;2022-11-09T17:51:18;13.20;99.90